Terminal Aerodrome Forecast
Issued by NWS Sioux Falls, SD

Home | Current Version | Previous Version | Text Only | Print | Product List | Glossary On
Versions: 1 2 3 4 5 6 7 8 9 10 11 12 13 14 15 16
000
FTUS43 KFSD 201100
TAFSUX
TAF
KSUX 201136Z 2012/2112 12006KT P6SM VCSH SCT080 BKN130
     FM201400 14005KT P6SM BKN150
     FM201900 17008KT P6SM SCT060 BKN150
     FM202200 19010KT P6SM -TSRA BKN050CB
     FM210000 17006KT P6SM BKN080
     FM210700 31007KT P6SM -SHRA BKN060=

USA.gov is the U.S. government's official web portal to all federal, state and local government web resources and services.